Stoutsville, Ohio
Current Conditions -  °F | °C
As of 6:53 AM on Friday 28 Nov 2014 (Local Time) from KLHQ Reporting Station
Clear Clear  
Wind Chill: 17°   Ceiling: Unl
Heat Index: 17°   Visibility: 7mi
Dew Point: 14°   Wind: 3mph
Humidity: 88%   Direction: 170°S
Pressure: 30.37"   Gusts: NA
Location:  39.6°N, 82.83°W
Report Text: KLHQ 281153Z AUTO 17003KT 7SM CLR M08/M10 A3037 RMK AO2 SLP298 60000 T10831100 11022 21083 53008
Loading
Personal Weather Stations






























Interactive Weather Map New forecast layout! Learn more

10-Day Weather Forecast

Advertisements
Track Severe Weather on mobile